Latest Weather Observations for Mount Boyce

IDN60901

Issued at 10:11 am EST Monday 25 July 2016 (issued every 10 minutes, with the page automatically refreshed every 10 minutes)

About weather observations | Map of Sydney area stations | Latest observations for Sydney area | Other Formats
Station Details ID: 063292 Name: MOUNT BOYCE AWS Lat: -33.62 Lon: 150.27 Height: 1080.0 m
Data from the previous 72 hours. | See also: Recent months at Mount Boyce
Date/Time
EST
Temp
°C
App
Temp
°C
Dew
Point
°C
Rel
Hum
%
Delta-T
°C
Wind Press
QNH
hPa
Press
MSL
hPa
Rain since
9am
mm
Dir  Spd
km/h
Gust
km/h
Spd
kts
Gust
kts
25/10:00am 2.8 -6.2 0.0 82 1.1 W 37 57 20 31 - - 0.0
25/09:35am 2.6 -6.0 0.2 84 1.0 W 35 57 19 31 - - 0.0
25/09:30am 2.6 -5.6 0.3 85 0.9 W 33 48 18 26 - - 0.0
25/09:01am 2.2 -6.0 0.6 89 0.6 W 33 52 18 28 - - 0.0
25/09:00am 2.2 -5.8 0.6 89 0.6 W 32 48 17 26 - - 0.4
25/08:30am 2.2 -5.9 0.7 90 0.6 W 33 61 18 33 - - 0.4
25/08:00am 2.1 -6.5 0.5 89 0.6 W 35 56 19 30 - - 0.4
25/07:30am 2.3 -6.3 0.2 86 0.8 W 35 57 19 31 - - 0.4
25/07:00am 2.3 -5.8 -0.1 84 1.0 W 32 52 17 28 - - 0.4
25/06:59am 2.3 -6.0 0.0 85 0.9 W 33 52 18 28 - - 0.4
25/06:53am 2.2 -6.4 -0.1 85 0.9 W 35 52 19 28 - - 0.4
25/06:46am 2.2 -5.5 -0.1 85 0.9 W 30 50 16 27 - - 0.4
25/06:44am 2.2 -5.5 -0.1 85 0.9 W 30 43 16 23 - - 0.4
25/06:30am 2.1 -6.0 -0.3 84 0.9 W 32 50 17 27 - - 0.4
25/06:10am 2.0 -7.0 -0.2 85 0.9 W 37 59 20 32 - - 0.4
25/06:00am 1.9 -6.2 -0.2 86 0.8 W 32 52 17 28 - - 0.4
25/05:30am 1.7 -7.4 -0.7 84 0.9 W 37 56 20 30 - - 0.4
25/05:08am 1.7 -6.7 -0.9 83 1.0 W 33 54 18 29 - - 0.4
25/05:00am 1.7 -7.1 -0.9 83 1.0 W 35 52 19 28 - - 0.4
25/04:30am 1.6 -6.6 -1.0 83 1.0 W 32 50 17 27 - - 0.4
25/04:00am 1.8 -6.5 -0.6 84 0.9 W 33 52 18 28 - - 0.4
25/03:31am 2.0 -6.3 -0.2 85 0.9 W 33 56 18 30 - - 0.4
25/03:30am 2.0 -6.3 -0.1 86 0.8 WSW 33 54 18 29 - - 0.4
25/03:00am 2.2 -5.8 0.6 89 0.6 W 32 59 17 32 - - 0.4
25/02:35am 2.4 -6.0 1.4 93 0.4 W 35 54 19 29 - - 0.4
25/02:30am 2.6 -6.2 1.4 92 0.5 W 37 52 20 28 - - 0.4
25/02:00am 2.7 -5.1 2.0 95 0.3 W 32 52 17 28 - - 0.4
25/01:33am 2.7 -4.7 1.7 93 0.4 W 30 50 16 27 - - 0.4
25/01:30am 2.6 -4.8 1.6 93 0.4 W 30 46 16 25 - - 0.4
25/01:26am 2.6 -4.9 1.4 92 0.5 W 30 46 16 25 - - 0.4
25/01:14am 2.5 -5.0 1.5 93 0.4 W 30 43 16 23 - - 0.4
25/01:00am 2.4 -4.6 1.7 95 0.3 W 28 46 15 25 - - 0.4
25/12:39am 2.7 -5.6 2.0 95 0.3 W 35 56 19 30 - - 0.4
25/12:30am 2.9 -5.4 2.0 94 0.4 W 35 61 19 33 - - 0.4
25/12:11am 3.1 -3.9 1.8 91 0.5 W 28 54 15 29 - - 0.0
25/12:09am 3.2 -3.8 1.7 90 0.6 W 28 54 15 29 - - 0.0
25/12:08am 3.2 -3.9 1.6 89 0.7 W 28 41 15 22 - - 0.0
25/12:00am 3.5 -3.2 1.2 85 1.0 WNW 26 44 14 24 - - 0.0
 
Date/Time
EST
Temp
°C
App
Temp
°C
Dew
Point
°C
Rel
Hum
%
Delta-T
°C
Wind Press
QNH
hPa
Press
MSL
hPa
Rain since
9am
mm
Dir  Spd
km/h
Gust
km/h
Spd
kts
Gust
kts
24/11:30pm 3.3 -3.1 1.0 85 0.9 W 24 41 13 22 - - 0.0
24/11:00pm 3.3 -3.5 0.7 83 1.1 W 26 39 14 21 - - 0.0
24/10:30pm 3.1 -4.1 0.5 83 1.1 W 28 43 15 23 - - 0.0
24/10:06pm 3.0 -4.7 0.1 81 1.2 W 30 48 16 26 - - 0.0
24/10:00pm 2.8 -5.3 -0.1 81 1.2 W 32 44 17 24 - - 0.0
24/09:47pm 2.9 -4.8 -0.2 80 1.2 W 30 48 16 26 - - 0.0
24/09:30pm 2.7 -5.0 -0.4 80 1.2 W 30 46 16 25 - - 0.0
24/09:26pm 2.7 -4.6 -0.2 81 1.2 W 28 46 15 25 - - 0.0
24/09:00pm 2.3 -4.7 -0.3 83 1.0 W 26 39 14 21 - - 0.0
24/08:43pm 2.4 -5.0 -0.5 81 1.1 W 28 46 15 25 - - 0.0
24/08:30pm 2.5 -4.5 -0.6 80 1.2 W 26 41 14 22 - - 0.0
24/08:00pm 2.5 -3.8 -1.1 77 1.4 W 22 32 12 17 - - 0.0
24/07:30pm 2.5 -4.6 -1.1 77 1.4 W 26 41 14 22 - - 0.0
24/07:10pm 2.6 -4.9 -1.2 76 1.5 W 28 46 15 25 - - 0.0
24/07:00pm 2.5 -4.6 -1.3 76 1.5 W 26 39 14 21 - - 0.0
24/06:30pm 2.6 -4.9 -1.6 74 1.6 W 28 43 15 23 - - 0.0
24/06:00pm 2.4 -4.4 -1.6 75 1.5 W 24 39 13 21 - - 0.0
24/05:30pm 2.3 -3.1 -1.3 77 1.4 WSW 17 24 9 13 - - 0.0
24/05:00pm 2.6 -3.8 -1.7 73 1.6 W 22 32 12 17 - - 0.0
24/04:30pm 3.0 -4.6 -1.9 70 1.9 W 28 43 15 23 - - 0.0
24/04:00pm 3.6 -3.9 -1.7 68 2.0 W 28 43 15 23 - - 0.0
24/03:30pm 3.9 -3.2 -1.5 68 2.1 W 26 44 14 24 - - 0.0
24/03:08pm 2.5 -5.8 -1.8 73 1.6 WSW 32 50 17 27 - - 0.0
24/03:00pm 2.4 -5.6 -2.1 72 1.7 WSW 30 43 16 23 - - 0.0
24/02:40pm 2.7 -5.9 -2.2 70 1.8 W 33 54 18 29 - - 0.0
24/02:30pm 4.0 -3.9 -1.6 67 2.2 W 30 44 16 24 - - 0.0
24/02:00pm 4.0 -2.4 -1.8 66 2.2 W 22 37 12 20 - - 0.0
24/01:35pm 2.4 -5.6 -2.3 71 1.8 WSW 30 56 16 30 - - 0.0
24/01:30pm 2.1 -5.5 -2.0 74 1.5 W 28 41 15 22 - - 0.0
24/01:08pm 2.1 -5.9 -2.2 73 1.6 W 30 48 16 26 - - 0.0
24/01:00pm 2.1 -6.5 -2.4 72 1.7 WSW 33 46 18 25 - - 0.0
24/12:30pm 1.9 -5.7 -2.4 73 1.6 W 28 41 15 22 - - 0.0
24/12:00pm 1.4 -6.3 -2.9 73 1.7 W 28 41 15 22 - - 0.0
24/11:30am 1.5 -5.5 -3.4 70 1.9 W 24 35 13 19 - - 0.0
24/11:00am 1.3 -5.3 -3.4 71 1.8 W 22 30 12 16 - - 0.0
24/10:30am 0.6 -6.4 -3.5 74 1.5 W 24 32 13 17 - - 0.0
24/10:00am 0.4 -5.2 -3.0 78 1.3 W 17 26 9 14 - - 0.0
24/09:30am -0.2 -5.8 -3.2 80 1.1 W 17 24 9 13 - - 0.0
24/09:00am -0.5 -6.5 -3.3 81 1.0 W 19 26 10 14 - - 0.0
24/08:30am -0.8 -6.5 -3.6 81 0.9 W 17 22 9 12 - - 0.0
24/08:00am -1.1 -6.0 -3.8 82 0.9 W 13 19 7 10 - - 0.0
24/07:30am -1.5 -6.1 -3.8 84 0.7 WSW 11 17 6 9 - - 0.0
24/07:00am -1.5 -6.5 -4.2 82 0.9 WSW 13 19 7 10 - - 0.0
24/06:30am -1.7 -6.7 -4.5 81 0.9 WSW 13 19 7 10 - - 0.0
24/06:00am -1.6 -7.4 -4.4 81 0.9 WSW 17 24 9 13 - - 0.0
24/05:30am -1.5 -7.3 -4.7 79 1.0 W 17 24 9 13 - - 0.0
24/05:00am -1.6 -7.0 -4.9 78 1.0 W 15 22 8 12 - - 0.0
24/04:30am -1.7 -7.2 -5.2 77 1.1 WSW 15 19 8 10 - - 0.0
24/04:00am -1.5 -7.7 -5.2 76 1.2 WSW 19 24 10 13 - - 0.0
24/03:30am -1.2 -7.6 -5.4 73 1.3 WSW 20 28 11 15 - - 0.0
24/03:00am -1.1 -8.3 -5.3 73 1.4 WSW 24 32 13 17 - - 0.0
24/02:30am -0.6 -8.9 -5.2 71 1.5 WSW 30 43 16 23 - - 0.0
24/02:05am -0.5 -9.4 -5.3 70 1.6 WSW 33 52 18 28 - - 0.0
24/02:00am -0.6 -9.3 -5.4 70 1.6 WSW 32 43 17 23 - - 0.0
24/01:30am -0.4 -8.7 -5.4 69 1.7 WSW 30 44 16 24 - - 0.0
24/01:00am -0.4 -8.4 -5.4 69 1.7 WSW 28 39 15 21 - - 0.0
24/12:30am -0.1 -9.0 -5.1 69 1.7 WSW 33 52 18 28 - - 0.0
24/12:00am 0.0 -8.9 -5.4 67 1.8 WSW 33 63 18 34 - - 0.0
 
Date/Time
EST
Temp
°C
App
Temp
°C
Dew
Point
°C
Rel
Hum
%
Delta-T
°C
Wind Press
QNH
hPa
Press
MSL
hPa
Rain since
9am
mm
Dir  Spd
km/h
Gust
km/h
Spd
kts
Gust
kts
23/11:30pm 0.3 -10.2 -5.9 63 2.1 WSW 41 69 22 37 - - 0.0
23/11:00pm 0.7 -11.4 -5.3 64 2.1 WSW 50 69 27 37 - - 0.0
23/10:30pm 0.9 -10.7 -4.1 69 1.8 WSW 48 70 26 38 - - 0.0
23/10:05pm 1.3 -7.9 -4.1 67 2.0 WSW 35 56 19 30 - - 0.0
23/10:00pm 1.3 -7.9 -4.1 67 2.0 WSW 35 48 19 26 - - 0.0
23/09:30pm 1.5 -7.3 -3.9 67 2.0 WSW 33 52 18 28 - - 0.0
23/09:00pm 1.8 -7.4 -4.3 64 2.3 WSW 35 56 19 30 - - 0.0
23/08:30pm 2.1 -9.4 -2.6 71 1.7 W 48 76 26 41 - - 0.0
23/08:00pm 2.4 -9.1 -2.9 68 2.0 WSW 48 80 26 43 - - 0.0
23/07:30pm 2.7 -10.2 -2.0 71 1.8 W 56 85 30 46 - - 0.0
23/07:00pm 2.6 -9.1 -1.9 72 1.7 W 50 87 27 47 - - 0.0
23/06:30pm 2.9 -8.4 -1.3 74 1.6 W 48 85 26 46 - - 0.0
23/06:27pm 2.9 -8.0 -0.9 76 1.5 W 46 70 25 38 - - 0.0
23/06:00pm 2.9 -5.5 -1.1 75 1.6 W 33 52 18 28 - - 0.0
23/05:30pm 3.0 -6.2 -1.0 75 1.6 W 37 56 20 30 - - 0.0
23/05:01pm 3.5 -4.9 -1.3 71 1.9 W 33 56 18 30 - - 0.0
23/05:00pm 3.5 -4.7 -1.3 71 1.9 W 32 46 17 25 - - 0.0
23/04:36pm 4.0 -4.3 -0.4 73 1.8 W 33 61 18 33 - - 0.0
23/04:30pm 3.8 -4.3 -0.2 75 1.6 W 32 44 17 24 - - 0.0
23/04:00pm 4.2 -5.3 -0.6 71 1.9 WSW 39 63 21 34 - - 0.0
23/03:30pm 4.3 -5.2 -0.7 70 2.0 W 39 69 21 37 - - 0.0
23/03:00pm 5.0 -4.4 0.2 71 2.0 W 39 67 21 36 - - 0.0
23/02:30pm 4.7 -3.4 1.2 78 1.5 W 33 57 18 31 - - 0.0
23/02:00pm 5.0 -2.5 1.3 77 1.6 W 30 50 16 27 - - 0.0
23/01:32pm 4.5 -3.7 0.6 76 1.6 W 33 57 18 31 - - 0.0
23/01:30pm 4.6 -3.4 0.7 76 1.6 W 32 48 17 26 - - 0.0
23/01:11pm 4.8 -2.7 0.9 76 1.6 W 30 57 16 31 - - 0.0
23/01:00pm 4.7 -2.9 0.8 76 1.6 W 30 44 16 24 - - 0.0
23/12:43pm 4.2 -3.8 0.4 76 1.6 W 32 72 17 39 - - 0.0
23/12:41pm 4.6 -2.9 0.9 77 1.5 W 30 48 16 26 - - 0.0
23/12:32pm 4.2 -4.0 0.4 76 1.6 W 33 48 18 26 - - 0.0
23/12:30pm 4.2 -4.0 0.4 76 1.6 W 33 48 18 26 - - 0.0
23/12:00pm 4.1 -4.4 1.1 81 1.3 W 35 59 19 32 - - 0.0
23/11:30am 3.9 -4.2 0.9 81 1.2 W 33 57 18 31 - - 0.0
23/11:29am 3.9 -4.2 0.9 81 1.2 W 33 54 18 29 - - 0.0
23/11:28am 3.8 -4.3 0.8 81 1.2 W 33 50 18 27 - - 0.0
23/11:00am 4.2 -4.8 0.2 75 1.6 W 37 65 20 35 - - 0.0
23/10:30am 4.6 -4.9 -0.4 70 2.0 W 39 69 21 37 - - 0.0
23/10:00am 3.8 -4.2 0.1 77 1.5 W 32 63 17 34 - - 0.0
23/09:30am 3.9 -6.4 -1.1 70 2.0 W 43 67 23 36 - - 0.0
23/09:00am 3.4 -7.0 -0.4 76 1.5 W 44 72 24 39 - - 6.6
23/08:30am 3.4 -6.9 -1.2 72 1.8 W 43 72 23 39 - - 6.6
23/08:00am 3.6 -4.8 -1.3 70 1.9 WSW 33 63 18 34 - - 6.6
23/07:30am 3.5 -8.3 -2.0 67 2.1 W 50 85 27 46 - - 6.6
23/07:00am 4.1 -7.9 -0.9 70 2.0 W 52 83 28 45 - - 6.6
23/06:45am 4.5 -7.1 -1.1 67 2.2 W 50 91 27 49 - - 6.6
23/06:30am 4.4 -5.8 0.0 73 1.8 W 43 69 23 37 - - 6.6
23/06:14am 4.6 -6.2 -0.2 71 1.9 W 46 76 25 41 - - 6.6
23/06:00am 5.1 -7.5 0.1 70 2.1 W 56 87 30 47 - - 6.6
23/05:45am 5.1 -6.8 1.9 80 1.4 W 54 89 29 48 - - 6.6
23/05:34am 4.7 -5.5 3.2 90 0.7 W 46 78 25 42 - - 6.6
23/05:30am 4.6 -5.0 3.4 92 0.5 W 43 70 23 38 - - 6.6
23/05:16am 4.7 -6.3 3.2 90 0.7 W 50 96 27 52 - - 6.6
23/05:00am 5.9 -5.1 2.9 81 1.3 W 50 80 27 43 - - 6.6
23/04:30am 6.7 -4.0 2.6 75 1.8 W 48 80 26 43 - - 6.6
23/04:00am 7.1 -2.5 3.2 76 1.8 W 43 65 23 35 - - 6.6
23/03:30am 7.2 -2.0 3.4 77 1.7 W 41 61 22 33 - - 6.6
23/03:00am 7.4 -1.9 3.1 74 1.9 W 41 67 22 36 - - 6.6
23/02:42am 7.7 -2.0 3.0 72 2.1 W 43 96 23 52 - - 6.6
23/02:30am 7.8 -1.9 3.1 72 2.1 W 43 70 23 38 - - 6.6
23/02:13am 8.1 -2.7 3.9 75 1.9 W 50 83 27 45 - - 6.6
23/02:12am 8.0 -3.2 3.8 75 1.9 W 52 83 28 45 - - 6.6
23/02:05am 8.2 -2.2 4.0 75 1.9 W 48 82 26 44 - - 6.6
23/02:00am 8.3 -0.6 5.2 81 1.5 W 41 70 22 38 - - 6.6
23/01:56am 8.3 0.0 5.9 85 1.2 W 39 70 21 38 - - 6.6
23/01:30am 8.3 1.0 7.2 93 0.5 W 35 56 19 30 - - 6.6
23/01:17am 8.5 1.9 7.7 95 0.4 W 32 52 17 28 - - 6.6
23/01:00am 9.0 3.0 8.7 98 0.2 W 30 54 16 29 - - 6.4
23/12:30am 10.3 4.2 9.8 97 0.3 WSW 32 67 17 36 - - 5.4
23/12:15am 11.1 4.6 10.3 95 0.4 W 35 69 19 37 - - 4.6
23/12:13am 11.3 5.2 10.5 95 0.4 W 33 52 18 28 - - 4.6
23/12:00am 12.0 4.3 11.4 96 0.3 W 43 76 23 41 - - 4.4
 
Date/Time
EST
Temp
°C
App
Temp
°C
Dew
Point
°C
Rel
Hum
%
Delta-T
°C
Wind Press
QNH
hPa
Press
MSL
hPa
Rain since
9am
mm
Dir  Spd
km/h
Gust
km/h
Spd
kts
Gust
kts
22/11:49pm 12.4 6.3 11.9 97 0.3 W 35 61 19 33 - - 4.0
22/11:30pm 13.5 4.4 11.4 87 1.2 WNW 50 85 27 46 - - 0.8
22/11:17pm 13.8 5.8 11.1 84 1.5 WNW 44 82 24 44 - - 0.4
22/11:08pm 13.7 6.6 10.9 83 1.6 W 39 61 21 33 - - 0.2
22/11:00pm 15.3 7.3 10.3 72 2.8 WNW 43 78 23 42 - - 0.0
22/10:30pm 15.8 6.7 9.9 68 3.3 WNW 48 82 26 44 - - 0.0
22/10:06pm 15.6 7.3 10.2 70 3.0 WNW 44 95 24 51 - - 0.0
22/10:00pm 15.6 7.5 10.2 70 3.0 WNW 43 69 23 37 - - 0.0
22/09:30pm 15.4 8.2 10.4 72 2.8 WNW 39 65 21 35 - - 0.0
22/09:00pm 15.4 8.1 10.2 71 2.9 WNW 39 61 21 33 - - 0.0
22/08:30pm 15.2 7.6 10.4 73 2.7 WNW 41 76 22 41 - - 0.0
22/08:00pm 14.8 7.9 10.4 75 2.4 WNW 37 70 20 38 - - 0.0
22/07:30pm 14.4 7.5 10.4 77 2.2 WNW 37 65 20 35 - - 0.0
22/07:00pm 14.3 7.4 10.3 77 2.2 WNW 37 69 20 37 - - 0.0
22/06:30pm 14.0 7.8 10.0 77 2.2 WNW 33 61 18 33 - - 0.0
22/06:00pm 14.3 7.6 9.7 74 2.5 WNW 35 74 19 40 - - 0.0
22/05:30pm 13.9 8.2 9.9 77 2.2 WNW 30 52 16 28 - - 0.0
22/05:00pm 14.0 7.0 9.8 76 2.3 W 37 61 20 33 - - 0.0
22/04:43pm 14.3 8.1 10.1 76 2.3 WNW 33 70 18 38 - - 0.0
22/04:30pm 14.4 8.8 10.2 76 2.3 WNW 30 50 16 27 - - 0.0
22/04:00pm 14.7 8.2 10.5 76 2.3 W 35 65 19 35 - - 0.0
22/03:43pm 14.4 8.8 11.4 82 1.7 W 32 52 17 28 - - 0.0
22/03:31pm 13.7 8.0 11.8 88 1.1 W 33 56 18 30 - - 0.0
22/03:30pm 13.7 8.0 11.8 88 1.1 W 33 56 18 30 - - 0.0
22/03:28pm 13.5 7.4 11.9 90 0.9 W 35 56 19 30 - - 0.0
22/03:18pm 13.0 6.9 11.7 92 0.7 W 35 54 19 29 - - 0.0
22/03:07pm 13.2 7.6 11.6 90 0.9 W 32 69 17 37 - - 0.0
22/03:00pm 13.3 7.7 11.5 89 1.0 W 32 50 17 27 - - 0.0
22/02:30pm 15.1 8.4 11.1 77 2.3 WNW 37 61 20 33 - - 0.0
22/02:02pm 14.7 8.4 10.9 78 2.1 WNW 35 54 19 29 - - 0.0
22/02:00pm 14.8 8.5 11.2 79 2.0 WNW 35 52 19 28 - - 0.0
22/01:30pm 14.8 6.9 10.8 77 2.2 W 43 70 23 38 - - 0.0
22/01:00pm 14.7 7.3 11.1 79 2.0 W 41 72 22 39 - - 0.0
22/12:30pm 13.9 6.6 11.4 85 1.4 W 41 65 22 35 - - 0.0
22/12:00pm 14.8 7.7 11.0 78 2.1 W 39 69 21 37 - - 0.0
22/11:30am 14.2 7.5 11.0 81 1.8 W 37 57 20 31 - - 0.0
22/11:03am 14.2 7.9 11.0 81 1.8 W 35 63 19 34 - - 0.0
22/11:00am 14.2 7.6 11.2 82 1.7 W 37 69 20 37 - - 0.0
22/10:30am 13.7 7.4 10.9 83 1.6 W 35 56 19 30 - - 0.0

Latest Capital City Observations: Canberra | Sydney | Melbourne | Brisbane | Adelaide | Perth | Hobart | Darwin

Other Formats:

Comma delimited format used in spreadsheet applications
http://www.bom.gov.au/fwo/IDN60901/IDN60901.94743.axf

JavaScript Object Notation format (JSON) in row-major order
http://www.bom.gov.au/fwo/IDN60901/IDN60901.94743.json